sensor_id;sensor_type;location;lat;lon;timestamp;pressure;altitude;pressure_sealevel;temperature;humidity
41250;BME280;26984;59.928;30.306;2023-01-26T00:01:18;101120.03;;;2.53;100.00
41250;BME280;26984;59.928;30.306;2023-01-26T00:03:47;101108.72;;;2.51;100.00
41250;BME280;26984;59.928;30.306;2023-01-26T00:06:16;101119.75;;;2.56;100.00
41250;BME280;26984;59.928;30.306;2023-01-26T00:08:46;101113.97;;;2.61;100.00
41250;BME280;26984;59.928;30.306;2023-01-26T00:11:16;101118.16;;;2.63;100.00
41250;BME280;26984;59.928;30.306;2023-01-26T00:13:44;101099.97;;;2.59;100.00
41250;BME280;26984;59.928;30.306;2023-01-26T00:16:13;101108.63;;;2.61;100.00
41250;BME280;26984;59.928;30.306;2023-01-26T00:18:42;101093.34;;;2.63;100.00
41250;BME280;26984;59.928;30.306;2023-01-26T00:21:13;101105.03;;;2.70;100.00
41250;BME280;26984;59.928;30.306;2023-01-26T00:23:41;101100.72;;;2.69;100.00
41250;BME280;26984;59.928;30.306;2023-01-26T00:26:09;101105.97;;;2.79;100.00
41250;BME280;26984;59.928;30.306;2023-01-26T00:28:39;101103.59;;;2.76;100.00
41250;BME280;26984;59.928;30.306;2023-01-26T00:31:09;101111.28;;;2.79;100.00
41250;BME280;26984;59.928;30.306;2023-01-26T00:33:39;101113.56;;;2.74;100.00
41250;BME280;26984;59.928;30.306;2023-01-26T00:36:10;101106.03;;;2.69;100.00
41250;BME280;26984;59.928;30.306;2023-01-26T00:38:40;101105.75;;;2.72;100.00
41250;BME280;26984;59.928;30.306;2023-01-26T00:41:09;101108.75;;;2.77;100.00
41250;BME280;26984;59.928;30.306;2023-01-26T00:43:57;101107.34;;;2.65;100.00
41250;BME280;26984;59.928;30.306;2023-01-26T00:46:25;101116.91;;;2.76;100.00
41250;BME280;26984;59.928;30.306;2023-01-26T00:48:55;101107.50;;;2.63;100.00
41250;BME280;26984;59.928;30.306;2023-01-26T00:51:23;101121.25;;;2.59;100.00
41250;BME280;26984;59.928;30.306;2023-01-26T00:53:51;101123.06;;;2.58;100.00
41250;BME280;26984;59.928;30.306;2023-01-26T00:56:18;101112.59;;;2.57;100.00
41250;BME280;26984;59.928;30.306;2023-01-26T00:58:46;101107.13;;;2.58;100.00
41250;BME280;26984;59.928;30.306;2023-01-26T01:01:14;101119.59;;;2.58;100.00
41250;BME280;26984;59.928;30.306;2023-01-26T01:03:42;101117.22;;;2.55;100.00
41250;BME280;26984;59.928;30.306;2023-01-26T01:06:12;101123.78;;;2.60;100.00
41250;BME280;26984;59.928;30.306;2023-01-26T01:08:40;101112.50;;;2.67;100.00
41250;BME280;26984;59.928;30.306;2023-01-26T01:11:09;101111.28;;;2.79;100.00
41250;BME280;26984;59.928;30.306;2023-01-26T01:13:38;101115.69;;;2.70;100.00
41250;BME280;26984;59.928;30.306;2023-01-26T01:16:07;101122.84;;;2.70;100.00
41250;BME280;26984;59.928;30.306;2023-01-26T01:18:35;101120.47;;;2.67;100.00
41250;BME280;26984;59.928;30.306;2023-01-26T01:21:05;101114.84;;;2.70;100.00
41250;BME280;26984;59.928;30.306;2023-01-26T01:23:35;101110.69;;;2.67;100.00
41250;BME280;26984;59.928;30.306;2023-01-26T01:26:04;101084.78;;;2.51;100.00
41250;BME280;26984;59.928;30.306;2023-01-26T01:28:32;101109.94;;;2.57;100.00
41250;BME280;26984;59.928;30.306;2023-01-26T01:31:03;101107.03;;;2.68;100.00
41250;BME280;26984;59.928;30.306;2023-01-26T01:33:31;101095.56;;;2.68;100.00
41250;BME280;26984;59.928;30.306;2023-01-26T01:35:59;101109.47;;;2.79;100.00
41250;BME280;26984;59.928;30.306;2023-01-26T01:38:27;101107.03;;;2.68;100.00
41250;BME280;26984;59.928;30.306;2023-01-26T01:40:57;101081.81;;;2.54;100.00
41250;BME280;26984;59.928;30.306;2023-01-26T01:43:26;101108.16;;;2.66;100.00
41250;BME280;26984;59.928;30.306;2023-01-26T01:45:54;101114.84;;;2.70;100.00
41250;BME280;26984;59.928;30.306;2023-01-26T01:48:24;101112.81;;;2.63;100.00
41250;BME280;26984;59.928;30.306;2023-01-26T01:50:57;101115.50;;;2.63;100.00
41250;BME280;26984;59.928;30.306;2023-01-26T01:53:28;101110.22;;;2.72;100.00
41250;BME280;26984;59.928;30.306;2023-01-26T01:56:02;101104.44;;;2.76;100.00
41250;BME280;26984;59.928;30.306;2023-01-26T01:58:33;101089.72;;;2.64;100.00
41250;BME280;26984;59.928;30.306;2023-01-26T02:01:04;101101.03;;;2.66;100.00
41250;BME280;26984;59.928;30.306;2023-01-26T02:03:32;101092.38;;;2.64;100.00
41250;BME280;26984;59.928;30.306;2023-01-26T02:06:05;101102.38;;;2.70;100.00
41250;BME280;26984;59.928;30.306;2023-01-26T02:08:38;101090.03;;;2.61;100.00
41250;BME280;26984;59.928;30.306;2023-01-26T02:11:10;101105.91;;;2.71;100.00
41250;BME280;26984;59.928;30.306;2023-01-26T02:13:40;101095.19;;;2.62;100.00
41250;BME280;26984;59.928;30.306;2023-01-26T02:16:08;101099.06;;;2.68;100.00
41250;BME280;26984;59.928;30.306;2023-01-26T02:18:36;101096.09;;;2.71;100.00
41250;BME280;26984;59.928;30.306;2023-01-26T02:21:06;101097.47;;;2.57;100.00
41250;BME280;26984;59.928;30.306;2023-01-26T02:23:45;101086.59;;;2.51;100.00
41250;BME280;26984;59.928;30.306;2023-01-26T02:26:18;101096.78;;;2.55;100.00
41250;BME280;26984;59.928;30.306;2023-01-26T02:28:47;101094.59;;;2.51;100.00
41250;BME280;26984;59.928;30.306;2023-01-26T02:31:16;101094.41;;;2.52;100.00
41250;BME280;26984;59.928;30.306;2023-01-26T02:33:48;101098.59;;;2.55;100.00
41250;BME280;26984;59.928;30.306;2023-01-26T02:36:19;101107.41;;;2.55;100.00
41250;BME280;26984;59.928;30.306;2023-01-26T02:38:57;101114.19;;;2.68;100.00
41250;BME280;26984;59.928;30.306;2023-01-26T02:41:28;101090.84;;;2.61;100.00
41250;BME280;26984;59.928;30.306;2023-01-26T02:44:14;101094.34;;;2.62;100.00
41250;BME280;26984;59.928;30.306;2023-01-26T02:46:42;101104.69;;;2.65;100.00
41250;BME280;26984;59.928;30.306;2023-01-26T02:49:10;101096.09;;;2.53;100.00
41250;BME280;26984;59.928;30.306;2023-01-26T02:52:01;101089.50;;;2.57;100.00
41250;BME280;26984;59.928;30.306;2023-01-26T02:54:32;101087.97;;;2.55;100.00
41250;BME280;26984;59.928;30.306;2023-01-26T02:57:18;101084.94;;;2.50;100.00
41250;BME280;26984;59.928;30.306;2023-01-26T02:59:46;101083.25;;;2.49;100.00
41250;BME280;26984;59.928;30.306;2023-01-26T03:02:14;101075.44;;;2.47;100.00
41250;BME280;26984;59.928;30.306;2023-01-26T03:04:42;101081.06;;;2.44;100.00
41250;BME280;26984;59.928;30.306;2023-01-26T03:07:10;101069.75;;;2.42;100.00
41250;BME280;26984;59.928;30.306;2023-01-26T03:09:38;101073.38;;;2.41;100.00
41250;BME280;26984;59.928;30.306;2023-01-26T03:12:08;101078.16;;;2.37;100.00
41250;BME280;26984;59.928;30.306;2023-01-26T03:14:37;101068.81;;;2.33;100.00
41250;BME280;26984;59.928;30.306;2023-01-26T03:17:05;101066.16;;;2.33;100.00
41250;BME280;26984;59.928;30.306;2023-01-26T03:19:34;101053.25;;;2.38;100.00
41250;BME280;26984;59.928;30.306;2023-01-26T03:22:20;101044.66;;;2.45;100.00
41250;BME280;26984;59.928;30.306;2023-01-26T03:25:07;101044.81;;;2.43;100.00
41250;BME280;26984;59.928;30.306;2023-01-26T03:28:01;101039.19;;;2.46;100.00
41250;BME280;26984;59.928;30.306;2023-01-26T03:30:30;101043.69;;;2.46;100.00
41250;BME280;26984;59.928;30.306;2023-01-26T03:32:59;101035.38;;;2.49;100.00
41250;BME280;26984;59.928;30.306;2023-01-26T03:35:27;101047.00;;;2.48;100.00
41250;BME280;26984;59.928;30.306;2023-01-26T03:37:55;101047.72;;;2.50;100.00
41250;BME280;26984;59.928;30.306;2023-01-26T03:40:36;101044.00;;;2.43;100.00
41250;BME280;26984;59.928;30.306;2023-01-26T03:43:22;101049.31;;;2.43;100.00
41250;BME280;26984;59.928;30.306;2023-01-26T03:46:09;101047.72;;;2.50;100.00
41250;BME280;26984;59.928;30.306;2023-01-26T03:48:54;101043.81;;;2.44;100.00
41250;BME280;26984;59.928;30.306;2023-01-26T03:51:39;101040.69;;;2.49;100.00
41250;BME280;26984;59.928;30.306;2023-01-26T03:54:24;101043.81;;;2.44;100.00
41250;BME280;26984;59.928;30.306;2023-01-26T03:57:10;101036.53;;;2.46;100.00
41250;BME280;26984;59.928;30.306;2023-01-26T03:59:38;101033.94;;;2.54;100.00
41250;BME280;26984;59.928;30.306;2023-01-26T04:02:15;101025.59;;;2.49;100.00
41250;BME280;26984;59.928;30.306;2023-01-26T04:05:02;101041.09;;;2.54;100.00
41250;BME280;26984;59.928;30.306;2023-01-26T04:07:52;101034.84;;;2.45;100.00
41250;BME280;26984;59.928;30.306;2023-01-26T04:10:37;101040.88;;;2.47;100.00
41250;BME280;26984;59.928;30.306;2023-01-26T04:13:05;101037.19;;;2.48;100.00
41250;BME280;26984;59.928;30.306;2023-01-26T04:16:00;101036.00;;;2.43;100.00
41250;BME280;26984;59.928;30.306;2023-01-26T04:18:47;101022.03;;;2.40;100.00
41250;BME280;26984;59.928;30.306;2023-01-26T04:21:33;101004.34;;;2.31;100.00
41250;BME280;26984;59.928;30.306;2023-01-26T04:24:09;101020.41;;;2.48;100.00
41250;BME280;26984;59.928;30.306;2023-01-26T04:26:41;101026.88;;;2.45;100.00
41250;BME280;26984;59.928;30.306;2023-01-26T04:29:15;101012.22;;;2.41;100.00
41250;BME280;26984;59.928;30.306;2023-01-26T04:31:45;101022.41;;;2.46;100.00
41250;BME280;26984;59.928;30.306;2023-01-26T04:34:18;101014.88;;;2.41;100.00
41250;BME280;26984;59.928;30.306;2023-01-26T04:36:46;101019.88;;;2.44;100.00
41250;BME280;26984;59.928;30.306;2023-01-26T04:39:16;101019.88;;;2.44;100.00
41250;BME280;26984;59.928;30.306;2023-01-26T04:41:47;101011.38;;;2.40;100.00
41250;BME280;26984;59.928;30.306;2023-01-26T04:44:16;101029.38;;;2.47;100.00
41250;BME280;26984;59.928;30.306;2023-01-26T04:46:44;101010.38;;;2.42;100.00
41250;BME280;26984;59.928;30.306;2023-01-26T04:49:14;101021.34;;;2.56;100.00
41250;BME280;26984;59.928;30.306;2023-01-26T04:51:43;101029.97;;;2.58;100.00
41250;BME280;26984;59.928;30.306;2023-01-26T04:54:11;101031.09;;;2.56;100.00
41250;BME280;26984;59.928;30.306;2023-01-26T04:56:43;101024.91;;;2.47;100.00
41250;BME280;26984;59.928;30.306;2023-01-26T04:59:10;101027.94;;;2.52;100.00
41250;BME280;26984;59.928;30.306;2023-01-26T05:01:40;101033.25;;;2.52;100.00
41250;BME280;26984;59.928;30.306;2023-01-26T05:04:09;101028.56;;;2.46;100.00
41250;BME280;26984;59.928;30.306;2023-01-26T05:06:40;101033.88;;;2.46;100.00
41250;BME280;26984;59.928;30.306;2023-01-26T05:09:09;101025.13;;;2.54;100.00
41250;BME280;26984;59.928;30.306;2023-01-26T05:11:39;101031.06;;;2.48;100.00
41250;BME280;26984;59.928;30.306;2023-01-26T05:14:10;101026.03;;;2.45;100.00
41250;BME280;26984;59.928;30.306;2023-01-26T05:17:01;101030.44;;;2.54;100.00
41250;BME280;26984;59.928;30.306;2023-01-26T05:19:47;101020.50;;;2.38;100.00
41250;BME280;26984;59.928;30.306;2023-01-26T05:22:30;101033.25;;;2.52;100.00
41250;BME280;26984;59.928;30.306;2023-01-26T05:25:19;101033.94;;;2.54;100.00
41250;BME280;26984;59.928;30.306;2023-01-26T05:28:00;101037.06;;;2.50;100.00
41250;BME280;26984;59.928;30.306;2023-01-26T05:30:29;101033.56;;;2.49;100.00
41250;BME280;26984;59.928;30.306;2023-01-26T05:33:01;101020.66;;;2.36;100.00
41250;BME280;26984;59.928;30.306;2023-01-26T05:35:29;101036.38;;;2.48;100.00
41250;BME280;26984;59.928;30.306;2023-01-26T05:37:58;101037.66;;;2.44;100.00
41250;BME280;26984;59.928;30.306;2023-01-26T05:40:32;101031.66;;;2.42;100.00
41250;BME280;26984;59.928;30.306;2023-01-26T05:43:00;101038.50;;;2.44;100.00
41250;BME280;26984;59.928;30.306;2023-01-26T05:45:50;101058.47;;;2.48;100.00
41250;BME280;26984;59.928;30.306;2023-01-26T05:48:20;101054.75;;;2.41;100.00
41250;BME280;26984;59.928;30.306;2023-01-26T05:50:53;101059.94;;;2.43;100.00
41250;BME280;26984;59.928;30.306;2023-01-26T05:53:21;101051.28;;;2.40;100.00
41250;BME280;26984;59.928;30.306;2023-01-26T05:55:52;101056.75;;;2.39;100.00
41250;BME280;26984;59.928;30.306;2023-01-26T05:58:23;101055.06;;;2.38;100.00
41250;BME280;26984;59.928;30.306;2023-01-26T06:00:51;101058.41;;;2.40;100.00
41250;BME280;26984;59.928;30.306;2023-01-26T06:03:24;101052.88;;;2.33;100.00
41250;BME280;26984;59.928;30.306;2023-01-26T06:05:54;101056.75;;;2.39;100.00
41250;BME280;26984;59.928;30.306;2023-01-26T06:08:37;101043.22;;;2.32;100.00
41250;BME280;26984;59.928;30.306;2023-01-26T06:11:25;101055.06;;;2.38;100.00
41250;BME280;26984;59.928;30.306;2023-01-26T06:14:16;101053.56;;;2.35;100.00
41250;BME280;26984;59.928;30.306;2023-01-26T06:16:43;101065.63;;;2.48;100.00
41250;BME280;26984;59.928;30.306;2023-01-26T06:19:12;101063.38;;;2.35;100.00
41250;BME280;26984;59.928;30.306;2023-01-26T06:21:41;101051.50;;;2.29;100.00
41250;BME280;26984;59.928;30.306;2023-01-26T06:24:09;101077.63;;;2.34;100.00
41250;BME280;26984;59.928;30.306;2023-01-26T06:26:38;101070.28;;;2.46;100.00
41250;BME280;26984;59.928;30.306;2023-01-26T06:29:08;101063.66;;;2.32;100.00
41250;BME280;26984;59.928;30.306;2023-01-26T06:31:36;101074.06;;;2.43;100.00
41250;BME280;26984;59.928;30.306;2023-01-26T06:34:05;101071.47;;;2.33;100.00
41250;BME280;26984;59.928;30.306;2023-01-26T06:36:38;101078.84;;;2.39;100.00
41250;BME280;26984;59.928;30.306;2023-01-26T06:39:16;101074.22;;;2.42;100.00
41250;BME280;26984;59.928;30.306;2023-01-26T06:41:46;101078.69;;;2.41;100.00
41250;BME280;26984;59.928;30.306;2023-01-26T06:44:14;101074.75;;;2.45;100.00
41250;BME280;26984;59.928;30.306;2023-01-26T06:46:42;101080.38;;;2.42;100.00
41250;BME280;26984;59.928;30.306;2023-01-26T06:49:10;101098.53;;;2.47;100.00
41250;BME280;26984;59.928;30.306;2023-01-26T06:51:45;101087.06;;;2.46;100.00
41250;BME280;26984;59.928;30.306;2023-01-26T06:54:15;101080.59;;;2.49;100.00
41250;BME280;26984;59.928;30.306;2023-01-26T06:57:17;101087.06;;;2.46;100.00
41250;BME280;26984;59.928;30.306;2023-01-26T07:00:00;101097.25;;;2.51;100.00
41250;BME280;26984;59.928;30.306;2023-01-26T07:02:44;101083.72;;;2.44;100.00
41250;BME280;26984;59.928;30.306;2023-01-26T07:05:12;101096.78;;;2.55;100.00
41250;BME280;26984;59.928;30.306;2023-01-26T07:07:39;101097.25;;;2.51;100.00
41250;BME280;26984;59.928;30.306;2023-01-26T07:10:08;101088.25;;;2.52;100.00
41250;BME280;26984;59.928;30.306;2023-01-26T07:12:39;101095.56;;;2.50;100.00
41250;BME280;26984;59.928;30.306;2023-01-26T07:15:08;101095.94;;;2.55;100.00
41250;BME280;26984;59.928;30.306;2023-01-26T07:17:37;101089.09;;;2.52;100.00
41250;BME280;26984;59.928;30.306;2023-01-26T07:20:06;101090.31;;;2.58;100.00
41250;BME280;26984;59.928;30.306;2023-01-26T07:22:34;101028.13;;;2.15;100.00
41250;BME280;26984;59.928;30.306;2023-01-26T07:25:02;101096.94;;;2.54;100.00
41250;BME280;26984;59.928;30.306;2023-01-26T07:27:30;101098.47;;;2.56;100.00
41250;BME280;26984;59.928;30.306;2023-01-26T07:29:59;101097.78;;;2.54;100.00
41250;BME280;26984;59.928;30.306;2023-01-26T07:32:27;101096.94;;;2.54;100.00
41250;BME280;26984;59.928;30.306;2023-01-26T07:34:55;101082.06;;;2.43;100.00
41250;BME280;26984;59.928;30.306;2023-01-26T07:37:26;101102.25;;;2.54;100.00
41250;BME280;26984;59.928;30.306;2023-01-26T07:39:54;101104.53;;;2.49;100.00
41250;BME280;26984;59.928;30.306;2023-01-26T07:42:22;101110.06;;;2.55;100.00
41250;BME280;26984;59.928;30.306;2023-01-26T07:45:07;101107.81;;;2.60;100.00
41250;BME280;26984;59.928;30.306;2023-01-26T07:47:35;101110.31;;;2.62;100.00
41250;BME280;26984;59.928;30.306;2023-01-26T07:50:03;101107.72;;;2.52;100.00
41250;BME280;26984;59.928;30.306;2023-01-26T07:52:32;101085.19;;;2.38;100.00
41250;BME280;26984;59.928;30.306;2023-01-26T07:55:00;101109.72;;;2.50;100.00
41250;BME280;26984;59.928;30.306;2023-01-26T07:57:28;101115.31;;;2.47;100.00
41250;BME280;26984;59.928;30.306;2023-01-26T07:59:57;101110.47;;;2.43;100.00
41250;BME280;26984;59.928;30.306;2023-01-26T08:02:27;101113.38;;;2.49;100.00
41250;BME280;26984;59.928;30.306;2023-01-26T08:04:54;101120.13;;;2.44;100.00
41250;BME280;26984;59.928;30.306;2023-01-26T08:07:22;101116.69;;;2.51;100.00
41250;BME280;26984;59.928;30.306;2023-01-26T08:09:50;101116.31;;;2.46;100.00
41250;BME280;26984;59.928;30.306;2023-01-26T08:12:18;101118.22;;;2.54;100.00
41250;BME280;26984;59.928;30.306;2023-01-26T08:14:46;101090.03;;;2.25;100.00
41250;BME280;26984;59.928;30.306;2023-01-26T08:17:14;101131.06;;;2.58;100.00
41250;BME280;26984;59.928;30.306;2023-01-26T08:19:44;101120.41;;;2.40;100.00
41250;BME280;26984;59.928;30.306;2023-01-26T08:22:12;101124.59;;;2.43;100.00
41250;BME280;26984;59.928;30.306;2023-01-26T08:24:39;101112.66;;;2.29;100.00
41250;BME280;26984;59.928;30.306;2023-01-26T08:27:07;101112.19;;;2.34;100.00
41250;BME280;26984;59.928;30.306;2023-01-26T08:29:35;101133.41;;;2.44;100.00
41250;BME280;26984;59.928;30.306;2023-01-26T08:32:03;101129.69;;;2.36;100.00
41250;BME280;26984;59.928;30.306;2023-01-26T08:34:31;101128.47;;;2.49;100.00
41250;BME280;26984;59.928;30.306;2023-01-26T08:37:00;101134.69;;;2.39;100.00
41250;BME280;26984;59.928;30.306;2023-01-26T08:39:29;101134.31;;;2.34;100.00
41250;BME280;26984;59.928;30.306;2023-01-26T08:41:57;101140.16;;;2.38;100.00
41250;BME280;26984;59.928;30.306;2023-01-26T08:44:25;101137.81;;;2.35;100.00
41250;BME280;26984;59.928;30.306;2023-01-26T08:46:53;101139.03;;;2.40;100.00
41250;BME280;26984;59.928;30.306;2023-01-26T08:49:21;101141.44;;;2.34;100.00
41250;BME280;26984;59.928;30.306;2023-01-26T08:51:49;101136.53;;;2.39;100.00
41250;BME280;26984;59.928;30.306;2023-01-26T08:54:19;101138.34;;;2.38;100.00
41250;BME280;26984;59.928;30.306;2023-01-26T08:56:46;101131.97;;;2.31;100.00
41250;BME280;26984;59.928;30.306;2023-01-26T08:59:14;101129.69;;;2.36;100.00
41250;BME280;26984;59.928;30.306;2023-01-26T09:01:42;101140.03;;;2.39;100.00
41250;BME280;26984;59.928;30.306;2023-01-26T09:04:10;101129.44;;;2.30;100.00
41250;BME280;26984;59.928;30.306;2023-01-26T09:06:38;101134.69;;;2.39;100.00
41250;BME280;26984;59.928;30.306;2023-01-26T09:09:06;101130.44;;;2.29;100.00
41250;BME280;26984;59.928;30.306;2023-01-26T09:11:39;101129.06;;;2.25;100.00
41250;BME280;26984;59.928;30.306;2023-01-26T09:14:08;101138.16;;;2.22;100.00
41250;BME280;26984;59.928;30.306;2023-01-26T09:16:35;101133.91;;;2.11;100.00
41250;BME280;26984;59.928;30.306;2023-01-26T09:19:03;101120.41;;;1.95;100.00
41250;BME280;26984;59.928;30.306;2023-01-26T09:21:31;101127.97;;;2.00;100.00
41250;BME280;26984;59.928;30.306;2023-01-26T09:23:59;101127.81;;;2.01;100.00
41250;BME280;26984;59.928;30.306;2023-01-26T09:26:28;101126.25;;;1.99;100.00
41250;BME280;26984;59.928;30.306;2023-01-26T09:28:58;101128.63;;;2.02;100.00
41250;BME280;26984;59.928;30.306;2023-01-26T09:31:26;101122.69;;;1.90;100.00
41250;BME280;26984;59.928;30.306;2023-01-26T09:33:53;101130.91;;;1.97;100.00
41250;BME280;26984;59.928;30.306;2023-01-26T09:36:21;101132.63;;;1.88;100.00
41250;BME280;26984;59.928;30.306;2023-01-26T09:38:49;101121.31;;;1.86;100.00
41250;BME280;26984;59.928;30.306;2023-01-26T09:41:44;101128.53;;;1.94;100.00
41250;BME280;26984;59.928;30.306;2023-01-26T09:44:18;101131.69;;;1.79;100.00
41250;BME280;26984;59.928;30.306;2023-01-26T09:47:01;101123.84;;;1.78;100.00
41250;BME280;26984;59.928;30.306;2023-01-26T09:49:41;101122.44;;;1.83;100.00
41250;BME280;26984;59.928;30.306;2023-01-26T09:52:17;101119.41;;;1.78;100.00
41250;BME280;26984;59.928;30.306;2023-01-26T09:54:49;101116.38;;;1.91;100.00
41250;BME280;26984;59.928;30.306;2023-01-26T09:57:21;101127.75;;;1.83;100.00
41250;BME280;26984;59.928;30.306;2023-01-26T09:59:57;101124.25;;;1.83;100.00
41250;BME280;26984;59.928;30.306;2023-01-26T10:02:36;101115.75;;;1.79;100.00
41250;BME280;26984;59.928;30.306;2023-01-26T10:05:13;101106.69;;;1.72;100.00
41250;BME280;26984;59.928;30.306;2023-01-26T10:07:44;101124.81;;;1.86;100.00
41250;BME280;26984;59.928;30.306;2023-01-26T10:10:17;101106.00;;;1.70;100.00
41250;BME280;26984;59.928;30.306;2023-01-26T10:12:47;101117.31;;;1.72;100.00
41250;BME280;26984;59.928;30.306;2023-01-26T10:15:27;101111.03;;;1.73;100.00
41250;BME280;26984;59.928;30.306;2023-01-26T10:17:57;101115.66;;;1.71;100.00
41250;BME280;26984;59.928;30.306;2023-01-26T10:20:30;101106.44;;;1.65;100.00
41250;BME280;26984;59.928;30.306;2023-01-26T10:23:02;101121.50;;;1.75;100.00
41250;BME280;26984;59.928;30.306;2023-01-26T10:25:33;101124.72;;;1.78;100.00
41250;BME280;26984;59.928;30.306;2023-01-26T10:28:10;101114.63;;;1.82;100.00
41250;BME280;26984;59.928;30.306;2023-01-26T10:30:43;101109.47;;;1.71;100.00
41250;BME280;26984;59.928;30.306;2023-01-26T10:33:17;101110.16;;;1.82;100.00
41250;BME280;26984;59.928;30.306;2023-01-26T10:35:46;101112.34;;;1.87;100.00
41250;BME280;26984;59.928;30.306;2023-01-26T10:38:38;101114.25;;;1.95;100.00
41250;BME280;26984;59.928;30.306;2023-01-26T10:41:21;101108.94;;;1.95;100.00
41250;BME280;26984;59.928;30.306;2023-01-26T10:43:51;101110.78;;;1.94;100.00
41250;BME280;26984;59.928;30.306;2023-01-26T10:46:29;101113.38;;;2.04;100.00
41250;BME280;26984;59.928;30.306;2023-01-26T10:49:00;101106.84;;;1.98;100.00
41250;BME280;26984;59.928;30.306;2023-01-26T10:51:30;101106.69;;;2.00;100.00
41250;BME280;26984;59.928;30.306;2023-01-26T10:54:19;101113.47;;;2.12;100.00
41250;BME280;26984;59.928;30.306;2023-01-26T10:56:49;101111.41;;;2.06;100.00
41250;BME280;26984;59.928;30.306;2023-01-26T10:59:30;101105.50;;;2.12;100.00
41250;BME280;26984;59.928;30.306;2023-01-26T11:02:14;101103.25;;;2.17;100.00
41250;BME280;26984;59.928;30.306;2023-01-26T11:05:02;101083.00;;;2.06;100.00
41250;BME280;26984;59.928;30.306;2023-01-26T11:07:32;101102.47;;;2.07;100.00
41250;BME280;26984;59.928;30.306;2023-01-26T11:10:18;101076.16;;;1.86;100.00
41250;BME280;26984;59.928;30.306;2023-01-26T11:12:47;101107.25;;;2.03;100.00
41250;BME280;26984;59.928;30.306;2023-01-26T11:15:16;101088.78;;;2.02;100.00
41250;BME280;26984;59.928;30.306;2023-01-26T11:17:51;101097.56;;;2.02;100.00
41250;BME280;26984;59.928;30.306;2023-01-26T11:20:42;101094.19;;;2.10;100.00
41250;BME280;26984;59.928;30.306;2023-01-26T11:23:18;101098.84;;;1.98;100.00
41250;BME280;26984;59.928;30.306;2023-01-26T11:26:04;101089.97;;;1.89;100.00
41250;BME280;26984;59.928;30.306;2023-01-26T11:28:45;101094.88;;;1.84;100.00
41250;BME280;26984;59.928;30.306;2023-01-26T11:31:25;101107.66;;;1.99;100.00
41250;BME280;26984;59.928;30.306;2023-01-26T11:34:06;101103.38;;;1.88;100.00
41250;BME280;26984;59.928;30.306;2023-01-26T11:36:47;101095.03;;;1.83;100.00
41250;BME280;26984;59.928;30.306;2023-01-26T11:39:24;101106.22;;;1.86;100.00
41250;BME280;26984;59.928;30.306;2023-01-26T11:42:06;101099.59;;;1.90;100.00
41250;BME280;26984;59.928;30.306;2023-01-26T11:45:07;101098.84;;;1.98;100.00
41250;BME280;26984;59.928;30.306;2023-01-26T11:48:04;101083.13;;;1.87;100.00
41250;BME280;26984;59.928;30.306;2023-01-26T11:50:42;101089.56;;;1.84;100.00
41250;BME280;26984;59.928;30.306;2023-01-26T11:53:26;101080.94;;;1.82;100.00
41250;BME280;26984;59.928;30.306;2023-01-26T11:56:12;101082.25;;;1.96;100.00
41250;BME280;26984;59.928;30.306;2023-01-26T11:58:50;101051.84;;;1.81;100.00
41250;BME280;26984;59.928;30.306;2023-01-26T12:01:21;101074.56;;;1.93;100.00
41250;BME280;26984;59.928;30.306;2023-01-26T12:03:55;101083.75;;;1.99;100.00
41250;BME280;26984;59.928;30.306;2023-01-26T12:06:29;101088.47;;;2.05;100.00
41250;BME280;26984;59.928;30.306;2023-01-26T12:09:02;101082.09;;;1.98;100.00
41250;BME280;26984;59.928;30.306;2023-01-26T12:11:36;101094.53;;;1.97;100.00
41250;BME280;26984;59.928;30.306;2023-01-26T12:14:20;101100.22;;;2.02;100.00
41250;BME280;26984;59.928;30.306;2023-01-26T12:17:14;101109.03;;;2.03;100.00
41250;BME280;26984;59.928;30.306;2023-01-26T12:19:50;101095.22;;;1.99;100.00
41250;BME280;26984;59.928;30.306;2023-01-26T12:22:27;101093.41;;;2.00;100.00
41250;BME280;26984;59.928;30.306;2023-01-26T12:25:02;101102.09;;;1.92;100.00
41250;BME280;26984;59.928;30.306;2023-01-26T12:27:37;101092.69;;;1.80;100.00
41250;BME280;26984;59.928;30.306;2023-01-26T12:30:22;101115.06;;;2.05;100.00
41250;BME280;26984;59.928;30.306;2023-01-26T12:32:51;101114.25;;;1.95;100.00
41250;BME280;26984;59.928;30.306;2023-01-26T12:35:29;101110.69;;;1.86;100.00
41250;BME280;26984;59.928;30.306;2023-01-26T12:38:08;101100.72;;;1.88;100.00
41250;BME280;26984;59.928;30.306;2023-01-26T12:40:46;101112.34;;;1.87;100.00
41250;BME280;26984;59.928;30.306;2023-01-26T12:43:33;101136.66;;;1.92;100.00
41250;BME280;26984;59.928;30.306;2023-01-26T12:46:05;101135.56;;;1.85;100.00
41250;BME280;26984;59.928;30.306;2023-01-26T12:48:39;101129.41;;;1.84;100.00
41250;BME280;26984;59.928;30.306;2023-01-26T12:51:10;101114.25;;;1.67;100.00
41250;BME280;26984;59.928;30.306;2023-01-26T12:53:49;101131.59;;;1.71;100.00
41250;BME280;26984;59.928;30.306;2023-01-26T12:56:23;101126.41;;;1.70;100.00
41250;BME280;26984;59.928;30.306;2023-01-26T12:58:54;101125.88;;;1.66;100.00
41250;BME280;26984;59.928;30.306;2023-01-26T13:01:25;101136.66;;;1.64;100.00
41250;BME280;26984;59.928;30.306;2023-01-26T13:03:57;101124.53;;;1.52;100.00
41250;BME280;26984;59.928;30.306;2023-01-26T13:06:27;101138.59;;;1.62;100.00
41250;BME280;26984;59.928;30.306;2023-01-26T13:09:17;101132.31;;;1.63;100.00
41250;BME280;26984;59.928;30.306;2023-01-26T13:11:48;101102.78;;;1.39;100.00